sensor_id;sensor_type;location;lat;lon;timestamp;P1;durP1;ratioP1;P2;durP2;ratioP2
55065;SDS011;40964;42.114;24.220;2024-02-21T00:01:42;31.45;;;13.25;;
55065;SDS011;40964;42.114;24.220;2024-02-21T00:04:07;31.13;;;12.80;;
55065;SDS011;40964;42.114;24.220;2024-02-21T00:06:34;30.35;;;13.57;;
55065;SDS011;40964;42.114;24.220;2024-02-21T00:08:59;30.80;;;13.18;;
55065;SDS011;40964;42.114;24.220;2024-02-21T00:11:25;35.13;;;14.30;;
55065;SDS011;40964;42.114;24.220;2024-02-21T00:13:50;28.95;;;13.15;;
55065;SDS011;40964;42.114;24.220;2024-02-21T00:16:18;29.55;;;12.40;;
55065;SDS011;40964;42.114;24.220;2024-02-21T00:18:44;27.70;;;12.25;;
55065;SDS011;40964;42.114;24.220;2024-02-21T00:21:09;28.17;;;12.23;;
55065;SDS011;40964;42.114;24.220;2024-02-21T00:23:40;30.38;;;12.88;;
55065;SDS011;40964;42.114;24.220;2024-02-21T00:26:05;31.10;;;12.43;;
55065;SDS011;40964;42.114;24.220;2024-02-21T00:28:31;30.95;;;12.80;;
55065;SDS011;40964;42.114;24.220;2024-02-21T00:30:56;46.28;;;17.63;;
55065;SDS011;40964;42.114;24.220;2024-02-21T00:33:22;35.58;;;15.15;;
55065;SDS011;40964;42.114;24.220;2024-02-21T00:35:47;29.98;;;13.75;;
55065;SDS011;40964;42.114;24.220;2024-02-21T00:38:12;29.20;;;13.00;;
55065;SDS011;40964;42.114;24.220;2024-02-21T00:40:38;28.95;;;13.55;;
55065;SDS011;40964;42.114;24.220;2024-02-21T00:43:03;36.65;;;14.60;;
55065;SDS011;40964;42.114;24.220;2024-02-21T00:45:29;36.75;;;14.05;;
55065;SDS011;40964;42.114;24.220;2024-02-21T00:47:54;31.33;;;13.43;;
55065;SDS011;40964;42.114;24.220;2024-02-21T00:50:20;30.60;;;12.90;;
55065;SDS011;40964;42.114;24.220;2024-02-21T00:52:45;31.00;;;12.68;;
55065;SDS011;40964;42.114;24.220;2024-02-21T00:55:11;31.17;;;13.07;;
55065;SDS011;40964;42.114;24.220;2024-02-21T00:57:36;28.23;;;12.00;;
55065;SDS011;40964;42.114;24.220;2024-02-21T01:00:02;34.10;;;14.32;;
55065;SDS011;40964;42.114;24.220;2024-02-21T01:02:28;31.52;;;14.75;;
55065;SDS011;40964;42.114;24.220;2024-02-21T01:04:56;32.05;;;14.70;;
55065;SDS011;40964;42.114;24.220;2024-02-21T01:07:22;27.92;;;13.10;;
55065;SDS011;40964;42.114;24.220;2024-02-21T01:09:48;31.48;;;13.25;;
55065;SDS011;40964;42.114;24.220;2024-02-21T01:12:14;30.25;;;13.02;;
55065;SDS011;40964;42.114;24.220;2024-02-21T01:14:39;30.05;;;13.07;;
55065;SDS011;40964;42.114;24.220;2024-02-21T01:17:04;28.42;;;12.65;;
55065;SDS011;40964;42.114;24.220;2024-02-21T01:19:31;26.90;;;13.10;;
55065;SDS011;40964;42.114;24.220;2024-02-21T01:21:56;32.75;;;13.65;;
55065;SDS011;40964;42.114;24.220;2024-02-21T01:24:22;30.42;;;14.15;;
55065;SDS011;40964;42.114;24.220;2024-02-21T01:26:47;28.83;;;12.48;;
55065;SDS011;40964;42.114;24.220;2024-02-21T01:29:12;30.33;;;13.35;;
55065;SDS011;40964;42.114;24.220;2024-02-21T01:31:38;34.88;;;14.65;;
55065;SDS011;40964;42.114;24.220;2024-02-21T01:34:03;29.77;;;13.70;;
55065;SDS011;40964;42.114;24.220;2024-02-21T01:36:29;31.23;;;13.93;;
55065;SDS011;40964;42.114;24.220;2024-02-21T01:38:54;32.72;;;14.75;;
55065;SDS011;40964;42.114;24.220;2024-02-21T01:41:20;33.47;;;14.30;;
55065;SDS011;40964;42.114;24.220;2024-02-21T01:43:45;27.52;;;12.68;;
55065;SDS011;40964;42.114;24.220;2024-02-21T01:46:11;29.20;;;12.65;;
55065;SDS011;40964;42.114;24.220;2024-02-21T01:48:36;30.63;;;12.43;;
55065;SDS011;40964;42.114;24.220;2024-02-21T01:51:02;30.10;;;13.00;;
55065;SDS011;40964;42.114;24.220;2024-02-21T01:53:29;26.80;;;11.25;;
55065;SDS011;40964;42.114;24.220;2024-02-21T01:55:57;28.98;;;13.18;;
55065;SDS011;40964;42.114;24.220;2024-02-21T01:58:23;27.25;;;11.88;;
55065;SDS011;40964;42.114;24.220;2024-02-21T02:00:49;28.20;;;13.02;;
55065;SDS011;40964;42.114;24.220;2024-02-21T02:03:15;27.08;;;12.20;;
55065;SDS011;40964;42.114;24.220;2024-02-21T02:08:13;30.88;;;14.40;;
55065;SDS011;40964;42.114;24.220;2024-02-21T02:10:39;32.97;;;13.52;;
55065;SDS011;40964;42.114;24.220;2024-02-21T02:13:05;31.27;;;13.07;;
55065;SDS011;40964;42.114;24.220;2024-02-21T02:16:04;36.78;;;14.73;;
55065;SDS011;40964;42.114;24.220;2024-02-21T02:18:22;32.72;;;14.25;;
55065;SDS011;40964;42.114;24.220;2024-02-21T02:20:48;34.70;;;14.98;;
55065;SDS011;40964;42.114;24.220;2024-02-21T02:23:21;32.42;;;14.82;;
55065;SDS011;40964;42.114;24.220;2024-02-21T02:25:48;33.53;;;14.43;;
55065;SDS011;40964;42.114;24.220;2024-02-21T02:28:18;32.28;;;14.00;;
55065;SDS011;40964;42.114;24.220;2024-02-21T02:30:44;33.90;;;14.70;;
55065;SDS011;40964;42.114;24.220;2024-02-21T02:33:10;45.03;;;16.05;;
55065;SDS011;40964;42.114;24.220;2024-02-21T02:35:35;27.70;;;12.90;;
55065;SDS011;40964;42.114;24.220;2024-02-21T02:38:01;30.25;;;12.35;;
55065;SDS011;40964;42.114;24.220;2024-02-21T02:40:27;23.58;;;11.55;;
55065;SDS011;40964;42.114;24.220;2024-02-21T02:42:53;28.73;;;12.88;;
55065;SDS011;40964;42.114;24.220;2024-02-21T02:45:20;27.60;;;12.48;;
55065;SDS011;40964;42.114;24.220;2024-02-21T02:47:48;26.33;;;12.93;;
55065;SDS011;40964;42.114;24.220;2024-02-21T02:50:13;28.02;;;12.40;;
55065;SDS011;40964;42.114;24.220;2024-02-21T02:52:39;27.02;;;11.95;;
55065;SDS011;40964;42.114;24.220;2024-02-21T02:55:05;27.67;;;12.55;;
55065;SDS011;40964;42.114;24.220;2024-02-21T02:57:31;26.98;;;12.02;;
55065;SDS011;40964;42.114;24.220;2024-02-21T02:59:57;28.45;;;11.48;;
55065;SDS011;40964;42.114;24.220;2024-02-21T03:02:22;26.27;;;11.20;;
55065;SDS011;40964;42.114;24.220;2024-02-21T03:04:48;24.77;;;11.25;;
55065;SDS011;40964;42.114;24.220;2024-02-21T03:07:14;26.38;;;11.88;;
55065;SDS011;40964;42.114;24.220;2024-02-21T03:09:40;24.83;;;11.75;;
55065;SDS011;40964;42.114;24.220;2024-02-21T03:12:09;26.75;;;11.90;;
55065;SDS011;40964;42.114;24.220;2024-02-21T03:14:37;26.85;;;11.68;;
55065;SDS011;40964;42.114;24.220;2024-02-21T03:17:02;26.40;;;11.00;;
55065;SDS011;40964;42.114;24.220;2024-02-21T03:19:28;23.30;;;11.45;;
55065;SDS011;40964;42.114;24.220;2024-02-21T03:21:54;27.77;;;11.45;;
55065;SDS011;40964;42.114;24.220;2024-02-21T03:24:20;27.10;;;11.80;;
55065;SDS011;40964;42.114;24.220;2024-02-21T03:26:46;26.52;;;11.45;;
55065;SDS011;40964;42.114;24.220;2024-02-21T03:29:14;28.33;;;12.68;;
55065;SDS011;40964;42.114;24.220;2024-02-21T03:31:40;28.80;;;12.75;;
55065;SDS011;40964;42.114;24.220;2024-02-21T03:34:05;29.27;;;13.38;;
55065;SDS011;40964;42.114;24.220;2024-02-21T03:36:31;24.88;;;12.35;;
55065;SDS011;40964;42.114;24.220;2024-02-21T03:38:56;25.50;;;11.68;;
55065;SDS011;40964;42.114;24.220;2024-02-21T03:41:21;29.88;;;13.30;;
55065;SDS011;40964;42.114;24.220;2024-02-21T03:43:47;27.13;;;12.55;;
55065;SDS011;40964;42.114;24.220;2024-02-21T03:46:13;30.23;;;12.52;;
55065;SDS011;40964;42.114;24.220;2024-02-21T03:48:39;30.42;;;12.07;;
55065;SDS011;40964;42.114;24.220;2024-02-21T03:51:04;28.20;;;12.93;;
55065;SDS011;40964;42.114;24.220;2024-02-21T03:53:30;25.95;;;12.70;;
55065;SDS011;40964;42.114;24.220;2024-02-21T03:55:55;27.48;;;12.45;;
55065;SDS011;40964;42.114;24.220;2024-02-21T03:58:22;26.73;;;11.90;;
55065;SDS011;40964;42.114;24.220;2024-02-21T04:00:47;30.55;;;12.63;;
55065;SDS011;40964;42.114;24.220;2024-02-21T04:03:13;32.47;;;14.15;;
55065;SDS011;40964;42.114;24.220;2024-02-21T04:05:38;32.20;;;12.52;;
55065;SDS011;40964;42.114;24.220;2024-02-21T04:08:04;28.40;;;13.35;;
55065;SDS011;40964;42.114;24.220;2024-02-21T04:10:30;29.25;;;13.00;;
55065;SDS011;40964;42.114;24.220;2024-02-21T04:12:55;33.40;;;13.50;;
55065;SDS011;40964;42.114;24.220;2024-02-21T04:15:21;27.55;;;11.80;;
55065;SDS011;40964;42.114;24.220;2024-02-21T04:17:46;31.25;;;13.15;;
55065;SDS011;40964;42.114;24.220;2024-02-21T04:20:15;30.58;;;14.52;;
55065;SDS011;40964;42.114;24.220;2024-02-21T04:22:44;28.27;;;12.38;;
55065;SDS011;40964;42.114;24.220;2024-02-21T04:25:09;28.42;;;11.13;;
55065;SDS011;40964;42.114;24.220;2024-02-21T04:27:36;28.45;;;13.68;;
55065;SDS011;40964;42.114;24.220;2024-02-21T04:30:03;22.48;;;11.35;;
55065;SDS011;40964;42.114;24.220;2024-02-21T04:32:28;23.27;;;10.95;;
55065;SDS011;40964;42.114;24.220;2024-02-21T04:34:54;22.15;;;9.85;;
55065;SDS011;40964;42.114;24.220;2024-02-21T04:37:19;22.92;;;11.32;;
55065;SDS011;40964;42.114;24.220;2024-02-21T04:39:45;25.45;;;11.13;;
55065;SDS011;40964;42.114;24.220;2024-02-21T04:42:11;24.63;;;11.00;;
55065;SDS011;40964;42.114;24.220;2024-02-21T04:44:36;24.02;;;11.40;;
55065;SDS011;40964;42.114;24.220;2024-02-21T04:47:03;27.25;;;11.15;;
55065;SDS011;40964;42.114;24.220;2024-02-21T04:49:29;23.65;;;10.20;;
55065;SDS011;40964;42.114;24.220;2024-02-21T04:51:54;26.60;;;11.30;;
55065;SDS011;40964;42.114;24.220;2024-02-21T04:54:20;24.38;;;12.00;;
55065;SDS011;40964;42.114;24.220;2024-02-21T04:56:45;24.90;;;11.52;;
55065;SDS011;40964;42.114;24.220;2024-02-21T04:59:11;27.13;;;12.20;;
55065;SDS011;40964;42.114;24.220;2024-02-21T05:01:36;39.35;;;13.63;;
55065;SDS011;40964;42.114;24.220;2024-02-21T05:04:02;26.38;;;12.10;;
55065;SDS011;40964;42.114;24.220;2024-02-21T05:06:27;27.52;;;12.98;;
55065;SDS011;40964;42.114;24.220;2024-02-21T05:08:53;31.08;;;13.52;;
55065;SDS011;40964;42.114;24.220;2024-02-21T05:11:20;25.02;;;12.50;;
55065;SDS011;40964;42.114;24.220;2024-02-21T05:13:46;28.25;;;12.52;;
55065;SDS011;40964;42.114;24.220;2024-02-21T05:16:12;29.90;;;13.00;;
55065;SDS011;40964;42.114;24.220;2024-02-21T05:18:37;24.15;;;11.52;;
55065;SDS011;40964;42.114;24.220;2024-02-21T05:21:03;21.23;;;9.88;;
55065;SDS011;40964;42.114;24.220;2024-02-21T05:23:28;22.02;;;10.32;;
55065;SDS011;40964;42.114;24.220;2024-02-21T05:25:54;24.60;;;10.93;;
55065;SDS011;40964;42.114;24.220;2024-02-21T05:28:19;19.88;;;10.25;;
55065;SDS011;40964;42.114;24.220;2024-02-21T05:30:45;23.80;;;10.02;;
55065;SDS011;40964;42.114;24.220;2024-02-21T05:33:10;22.02;;;10.45;;
55065;SDS011;40964;42.114;24.220;2024-02-21T05:35:36;31.85;;;13.18;;
55065;SDS011;40964;42.114;24.220;2024-02-21T05:38:02;23.92;;;11.75;;
55065;SDS011;40964;42.114;24.220;2024-02-21T05:40:31;23.45;;;11.65;;
55065;SDS011;40964;42.114;24.220;2024-02-21T05:42:57;25.27;;;10.90;;
55065;SDS011;40964;42.114;24.220;2024-02-21T05:45:22;29.70;;;13.05;;
55065;SDS011;40964;42.114;24.220;2024-02-21T05:47:48;35.83;;;17.52;;
55065;SDS011;40964;42.114;24.220;2024-02-21T05:52:56;26.83;;;12.40;;
55065;SDS011;40964;42.114;24.220;2024-02-21T05:55:22;25.90;;;11.77;;
55065;SDS011;40964;42.114;24.220;2024-02-21T05:57:48;26.20;;;11.73;;
55065;SDS011;40964;42.114;24.220;2024-02-21T06:00:14;22.30;;;10.63;;
55065;SDS011;40964;42.114;24.220;2024-02-21T06:02:40;29.20;;;13.38;;
55065;SDS011;40964;42.114;24.220;2024-02-21T06:05:06;22.65;;;11.00;;
55065;SDS011;40964;42.114;24.220;2024-02-21T06:07:34;22.35;;;11.07;;
55065;SDS011;40964;42.114;24.220;2024-02-21T06:10:01;25.65;;;10.65;;
55065;SDS011;40964;42.114;24.220;2024-02-21T06:12:27;20.90;;;9.80;;
55065;SDS011;40964;42.114;24.220;2024-02-21T06:14:53;19.63;;;9.23;;
55065;SDS011;40964;42.114;24.220;2024-02-21T06:17:18;16.25;;;8.32;;
55065;SDS011;40964;42.114;24.220;2024-02-21T06:19:44;15.32;;;7.50;;
55065;SDS011;40964;42.114;24.220;2024-02-21T06:22:12;16.70;;;7.72;;
55065;SDS011;40964;42.114;24.220;2024-02-21T06:24:38;17.38;;;8.30;;
55065;SDS011;40964;42.114;24.220;2024-02-21T06:27:04;15.32;;;6.70;;
55065;SDS011;40964;42.114;24.220;2024-02-21T06:29:33;18.08;;;8.25;;
55065;SDS011;40964;42.114;24.220;2024-02-21T06:31:58;15.25;;;7.90;;
55065;SDS011;40964;42.114;24.220;2024-02-21T06:34:24;15.68;;;7.70;;
55065;SDS011;40964;42.114;24.220;2024-02-21T06:36:50;14.02;;;7.53;;
55065;SDS011;40964;42.114;24.220;2024-02-21T06:39:16;16.95;;;9.23;;
55065;SDS011;40964;42.114;24.220;2024-02-21T06:41:41;20.95;;;9.10;;
55065;SDS011;40964;42.114;24.220;2024-02-21T06:44:07;18.73;;;9.27;;
55065;SDS011;40964;42.114;24.220;2024-02-21T06:46:33;19.70;;;8.88;;
55065;SDS011;40964;42.114;24.220;2024-02-21T06:48:58;19.20;;;9.77;;
55065;SDS011;40964;42.114;24.220;2024-02-21T06:51:34;22.52;;;10.27;;
55065;SDS011;40964;42.114;24.220;2024-02-21T06:53:59;18.63;;;10.23;;
55065;SDS011;40964;42.114;24.220;2024-02-21T06:56:25;15.95;;;7.85;;
55065;SDS011;40964;42.114;24.220;2024-02-21T06:58:53;18.85;;;8.20;;
55065;SDS011;40964;42.114;24.220;2024-02-21T07:01:19;15.88;;;8.45;;
55065;SDS011;40964;42.114;24.220;2024-02-21T07:03:45;17.73;;;9.00;;
55065;SDS011;40964;42.114;24.220;2024-02-21T07:06:10;20.17;;;9.48;;
55065;SDS011;40964;42.114;24.220;2024-02-21T07:08:35;35.20;;;14.73;;
55065;SDS011;40964;42.114;24.220;2024-02-21T07:11:01;20.63;;;10.60;;
55065;SDS011;40964;42.114;24.220;2024-02-21T07:13:26;19.05;;;9.68;;
55065;SDS011;40964;42.114;24.220;2024-02-21T07:15:52;24.35;;;11.95;;
55065;SDS011;40964;42.114;24.220;2024-02-21T07:18:17;19.52;;;9.18;;
55065;SDS011;40964;42.114;24.220;2024-02-21T07:20:43;19.70;;;8.68;;
55065;SDS011;40964;42.114;24.220;2024-02-21T07:23:08;19.60;;;9.88;;
55065;SDS011;40964;42.114;24.220;2024-02-21T07:25:34;23.48;;;10.82;;
55065;SDS011;40964;42.114;24.220;2024-02-21T07:27:59;15.57;;;8.55;;
55065;SDS011;40964;42.114;24.220;2024-02-21T07:30:25;21.17;;;8.48;;
55065;SDS011;40964;42.114;24.220;2024-02-21T07:32:50;19.15;;;8.77;;
55065;SDS011;40964;42.114;24.220;2024-02-21T07:35:17;15.35;;;7.82;;
55065;SDS011;40964;42.114;24.220;2024-02-21T07:37:43;19.73;;;8.98;;
55065;SDS011;40964;42.114;24.220;2024-02-21T07:40:15;14.27;;;7.63;;
55065;SDS011;40964;42.114;24.220;2024-02-21T07:42:41;12.23;;;6.57;;
55065;SDS011;40964;42.114;24.220;2024-02-21T07:45:08;12.75;;;6.55;;
55065;SDS011;40964;42.114;24.220;2024-02-21T07:47:34;14.25;;;6.93;;
55065;SDS011;40964;42.114;24.220;2024-02-21T07:50:00;15.40;;;7.70;;
55065;SDS011;40964;42.114;24.220;2024-02-21T07:52:25;15.82;;;7.07;;
55065;SDS011;40964;42.114;24.220;2024-02-21T07:54:51;13.45;;;6.82;;
55065;SDS011;40964;42.114;24.220;2024-02-21T07:57:16;15.45;;;7.32;;
55065;SDS011;40964;42.114;24.220;2024-02-21T07:59:42;13.30;;;6.82;;
55065;SDS011;40964;42.114;24.220;2024-02-21T08:02:07;11.80;;;6.13;;
55065;SDS011;40964;42.114;24.220;2024-02-21T08:04:33;13.20;;;6.90;;
55065;SDS011;40964;42.114;24.220;2024-02-21T08:06:58;10.10;;;5.85;;
55065;SDS011;40964;42.114;24.220;2024-02-21T08:09:26;12.25;;;5.82;;
55065;SDS011;40964;42.114;24.220;2024-02-21T08:11:52;12.68;;;6.93;;
55065;SDS011;40964;42.114;24.220;2024-02-21T08:14:19;10.20;;;5.88;;
55065;SDS011;40964;42.114;24.220;2024-02-21T08:16:44;9.65;;;5.72;;
55065;SDS011;40964;42.114;24.220;2024-02-21T08:19:10;9.82;;;5.07;;
55065;SDS011;40964;42.114;24.220;2024-02-21T08:21:36;9.73;;;4.75;;
55065;SDS011;40964;42.114;24.220;2024-02-21T08:24:01;10.00;;;5.20;;
55065;SDS011;40964;42.114;24.220;2024-02-21T08:26:27;8.45;;;4.72;;
55065;SDS011;40964;42.114;24.220;2024-02-21T08:28:55;8.68;;;4.78;;
55065;SDS011;40964;42.114;24.220;2024-02-21T08:31:23;9.23;;;4.85;;
55065;SDS011;40964;42.114;24.220;2024-02-21T08:33:56;9.25;;;4.70;;
55065;SDS011;40964;42.114;24.220;2024-02-21T08:36:31;7.95;;;3.75;;
55065;SDS011;40964;42.114;24.220;2024-02-21T08:39:00;8.73;;;4.82;;
55065;SDS011;40964;42.114;24.220;2024-02-21T08:41:29;8.05;;;4.38;;
55065;SDS011;40964;42.114;24.220;2024-02-21T08:43:56;9.65;;;5.47;;
55065;SDS011;40964;42.114;24.220;2024-02-21T08:46:22;10.35;;;5.55;;
55065;SDS011;40964;42.114;24.220;2024-02-21T08:48:50;8.05;;;4.63;;
55065;SDS011;40964;42.114;24.220;2024-02-21T08:51:16;9.80;;;5.45;;
55065;SDS011;40964;42.114;24.220;2024-02-21T08:53:43;9.60;;;5.68;;
55065;SDS011;40964;42.114;24.220;2024-02-21T08:56:09;11.30;;;5.38;;
55065;SDS011;40964;42.114;24.220;2024-02-21T08:58:35;10.23;;;5.20;;
55065;SDS011;40964;42.114;24.220;2024-02-21T09:01:02;9.20;;;4.80;;
55065;SDS011;40964;42.114;24.220;2024-02-21T09:03:30;10.38;;;5.25;;
55065;SDS011;40964;42.114;24.220;2024-02-21T09:05:57;10.38;;;5.40;;
55065;SDS011;40964;42.114;24.220;2024-02-21T09:08:22;7.57;;;4.43;;
55065;SDS011;40964;42.114;24.220;2024-02-21T09:10:49;8.18;;;4.47;;
55065;SDS011;40964;42.114;24.220;2024-02-21T09:13:14;7.85;;;4.53;;
55065;SDS011;40964;42.114;24.220;2024-02-21T09:15:40;10.48;;;5.32;;
55065;SDS011;40964;42.114;24.220;2024-02-21T09:18:05;7.75;;;4.22;;
55065;SDS011;40964;42.114;24.220;2024-02-21T09:20:31;7.07;;;4.22;;
55065;SDS011;40964;42.114;24.220;2024-02-21T09:22:57;6.40;;;3.90;;
55065;SDS011;40964;42.114;24.220;2024-02-21T09:25:22;7.38;;;4.25;;
55065;SDS011;40964;42.114;24.220;2024-02-21T09:27:47;8.45;;;4.28;;
55065;SDS011;40964;42.114;24.220;2024-02-21T09:30:13;7.80;;;4.82;;
55065;SDS011;40964;42.114;24.220;2024-02-21T09:32:39;8.15;;;3.95;;
55065;SDS011;40964;42.114;24.220;2024-02-21T09:35:05;4.75;;;2.60;;
55065;SDS011;40964;42.114;24.220;2024-02-21T09:37:31;6.18;;;2.85;;
55065;SDS011;40964;42.114;24.220;2024-02-21T09:39:56;4.80;;;3.15;;
55065;SDS011;40964;42.114;24.220;2024-02-21T09:42:22;7.75;;;3.58;;
55065;SDS011;40964;42.114;24.220;2024-02-21T09:45:02;5.88;;;3.53;;
55065;SDS011;40964;42.114;24.220;2024-02-21T09:47:40;5.75;;;3.53;;
55065;SDS011;40964;42.114;24.220;2024-02-21T09:50:15;6.43;;;3.20;;
55065;SDS011;40964;42.114;24.220;2024-02-21T09:52:43;8.23;;;3.90;;
55065;SDS011;40964;42.114;24.220;2024-02-21T09:55:10;5.88;;;3.63;;
55065;SDS011;40964;42.114;24.220;2024-02-21T09:57:38;4.95;;;3.33;;
55065;SDS011;40964;42.114;24.220;2024-02-21T10:00:04;7.03;;;3.50;;
55065;SDS011;40964;42.114;24.220;2024-02-21T10:02:33;5.30;;;3.47;;
55065;SDS011;40964;42.114;24.220;2024-02-21T10:04:59;5.28;;;3.42;;
55065;SDS011;40964;42.114;24.220;2024-02-21T10:07:24;7.22;;;3.58;;
55065;SDS011;40964;42.114;24.220;2024-02-21T10:10:00;7.03;;;3.55;;
55065;SDS011;40964;42.114;24.220;2024-02-21T10:12:29;7.63;;;4.30;;
55065;SDS011;40964;42.114;24.220;2024-02-21T10:15:04;6.95;;;3.67;;
55065;SDS011;40964;42.114;24.220;2024-02-21T10:17:31;4.90;;;2.90;;
55065;SDS011;40964;42.114;24.220;2024-02-21T10:20:07;5.90;;;3.42;;
55065;SDS011;40964;42.114;24.220;2024-02-21T10:22:37;8.18;;;4.95;;
55065;SDS011;40964;42.114;24.220;2024-02-21T10:25:10;6.10;;;4.00;;
55065;SDS011;40964;42.114;24.220;2024-02-21T10:27:37;7.50;;;4.18;;
55065;SDS011;40964;42.114;24.220;2024-02-21T10:30:04;7.28;;;3.92;;
55065;SDS011;40964;42.114;24.220;2024-02-21T10:32:30;5.63;;;3.80;;
55065;SDS011;40964;42.114;24.220;2024-02-21T10:35:05;9.23;;;4.85;;
55065;SDS011;40964;42.114;24.220;2024-02-21T10:37:31;5.50;;;3.60;;
55065;SDS011;40964;42.114;24.220;2024-02-21T10:40:00;7.15;;;3.88;;
55065;SDS011;40964;42.114;24.220;2024-02-21T10:42:28;6.47;;;3.58;;
55065;SDS011;40964;42.114;24.220;2024-02-21T10:45:00;6.43;;;4.00;;
55065;SDS011;40964;42.114;24.220;2024-02-21T10:47:29;7.05;;;4.00;;
55065;SDS011;40964;42.114;24.220;2024-02-21T10:49:57;6.47;;;3.65;;
55065;SDS011;40964;42.114;24.220;2024-02-21T10:52:45;4.88;;;3.10;;
55065;SDS011;40964;42.114;24.220;2024-02-21T10:55:20;6.15;;;3.58;;
55065;SDS011;40964;42.114;24.220;2024-02-21T10:57:49;5.38;;;3.50;;
55065;SDS011;40964;42.114;24.220;2024-02-21T11:00:16;5.10;;;3.10;;
55065;SDS011;40964;42.114;24.220;2024-02-21T11:02:43;3.83;;;2.35;;
55065;SDS011;40964;42.114;24.220;2024-02-21T11:05:10;4.07;;;2.28;;
55065;SDS011;40964;42.114;24.220;2024-02-21T11:07:37;3.00;;;2.15;;
55065;SDS011;40964;42.114;24.220;2024-02-21T11:10:03;4.03;;;2.33;;
55065;SDS011;40964;42.114;24.220;2024-02-21T11:12:32;2.65;;;1.85;;
55065;SDS011;40964;42.114;24.220;2024-02-21T11:15:06;2.88;;;2.00;;
55065;SDS011;40964;42.114;24.220;2024-02-21T11:17:32;3.00;;;2.30;;
55065;SDS011;40964;42.114;24.220;2024-02-21T11:19:58;4.70;;;2.03;;
55065;SDS011;40964;42.114;24.220;2024-02-21T11:22:25;3.35;;;2.20;;
55065;SDS011;40964;42.114;24.220;2024-02-21T11:24:54;3.20;;;2.20;;
55065;SDS011;40964;42.114;24.220;2024-02-21T11:27:21;3.05;;;2.20;;
55065;SDS011;40964;42.114;24.220;2024-02-21T11:29:54;2.70;;;1.95;;
55065;SDS011;40964;42.114;24.220;2024-02-21T11:32:21;2.95;;;2.00;;
55065;SDS011;40964;42.114;24.220;2024-02-21T11:34:54;2.90;;;2.13;;
55065;SDS011;40964;42.114;24.220;2024-02-21T11:37:33;4.15;;;2.10;;
55065;SDS011;40964;42.114;24.220;2024-02-21T11:40:01;3.45;;;2.10;;
55065;SDS011;40964;42.114;24.220;2024-02-21T11:42:28;5.82;;;2.60;;
55065;SDS011;40964;42.114;24.220;2024-02-21T11:44:55;3.60;;;2.60;;
55065;SDS011;40964;42.114;24.220;2024-02-21T11:47:24;3.10;;;2.15;;
55065;SDS011;40964;42.114;24.220;2024-02-21T11:49:50;2.80;;;2.25;;
55065;SDS011;40964;42.114;24.220;2024-02-21T11:52:19;3.95;;;2.55;;
55065;SDS011;40964;42.114;24.220;2024-02-21T11:54:50;2.92;;;2.00;;
55065;SDS011;40964;42.114;24.220;2024-02-21T11:57:16;3.97;;;2.35;;
55065;SDS011;40964;42.114;24.220;2024-02-21T11:59:43;3.58;;;2.50;;
55065;SDS011;40964;42.114;24.220;2024-02-21T12:02:10;4.80;;;2.40;;
55065;SDS011;40964;42.114;24.220;2024-02-21T12:04:37;3.70;;;2.22;;
55065;SDS011;40964;42.114;24.220;2024-02-21T12:07:02;3.53;;;2.35;;
55065;SDS011;40964;42.114;24.220;2024-02-21T12:09:31;4.53;;;2.90;;
55065;SDS011;40964;42.114;24.220;2024-02-21T12:11:58;4.13;;;2.80;;
55065;SDS011;40964;42.114;24.220;2024-02-21T12:14:24;5.00;;;2.58;;
55065;SDS011;40964;42.114;24.220;2024-02-21T12:16:50;3.72;;;2.45;;
55065;SDS011;40964;42.114;24.220;2024-02-21T12:19:15;4.15;;;2.53;;
55065;SDS011;40964;42.114;24.220;2024-02-21T12:21:42;4.18;;;2.58;;
55065;SDS011;40964;42.114;24.220;2024-02-21T12:24:41;4.47;;;2.80;;
55065;SDS011;40964;42.114;24.220;2024-02-21T12:27:00;4.30;;;2.85;;
55065;SDS011;40964;42.114;24.220;2024-02-21T12:29:28;3.78;;;2.50;;
55065;SDS011;40964;42.114;24.220;2024-02-21T12:31:55;4.60;;;2.70;;
55065;SDS011;40964;42.114;24.220;2024-02-21T12:34:20;4.10;;;2.92;;
55065;SDS011;40964;42.114;24.220;2024-02-21T12:36:47;4.43;;;2.83;;
55065;SDS011;40964;42.114;24.220;2024-02-21T12:39:12;5.53;;;2.55;;
55065;SDS011;40964;42.114;24.220;2024-02-21T12:41:38;3.67;;;2.22;;
55065;SDS011;40964;42.114;24.220;2024-02-21T12:44:05;4.90;;;2.70;;
55065;SDS011;40964;42.114;24.220;2024-02-21T12:46:34;4.00;;;2.28;;
55065;SDS011;40964;42.114;24.220;2024-02-21T12:49:03;4.95;;;2.67;;
55065;SDS011;40964;42.114;24.220;2024-02-21T12:51:29;5.00;;;2.92;;
55065;SDS011;40964;42.114;24.220;2024-02-21T12:53:59;4.30;;;3.10;;
55065;SDS011;40964;42.114;24.220;2024-02-21T12:56:25;5.05;;;2.85;;
55065;SDS011;40964;42.114;24.220;2024-02-21T12:58:54;6.03;;;3.03;;
55065;SDS011;40964;42.114;24.220;2024-02-21T13:01:20;4.53;;;3.38;;
55065;SDS011;40964;42.114;24.220;2024-02-21T13:03:46;5.53;;;3.03;;
55065;SDS011;40964;42.114;24.220;2024-02-21T13:06:12;4.80;;;2.63;;
55065;SDS011;40964;42.114;24.220;2024-02-21T13:08:37;3.67;;;2.40;;
55065;SDS011;40964;42.114;24.220;2024-02-21T13:11:03;3.95;;;2.70;;
55065;SDS011;40964;42.114;24.220;2024-02-21T13:13:30;4.03;;;2.65;;
55065;SDS011;40964;42.114;24.220;2024-02-21T13:15:56;4.55;;;2.72;;
55065;SDS011;40964;42.114;24.220;2024-02-21T13:18:22;4.38;;;2.25;;
55065;SDS011;40964;42.114;24.220;2024-02-21T13:20:47;4.18;;;2.83;;
55065;SDS011;40964;42.114;24.220;2024-02-21T13:23:13;9.85;;;3.20;;
55065;SDS011;40964;42.114;24.220;2024-02-21T13:25:38;6.22;;;2.53;;
55065;SDS011;40964;42.114;24.220;2024-02-21T13:28:04;3.60;;;2.58;;
55065;SDS011;40964;42.114;24.220;2024-02-21T13:30:30;6.97;;;3.05;;
55065;SDS011;40964;42.114;24.220;2024-02-21T13:32:55;3.70;;;2.60;;
55065;SDS011;40964;42.114;24.220;2024-02-21T13:35:21;4.75;;;2.40;;
55065;SDS011;40964;42.114;24.220;2024-02-21T13:37:46;2.58;;;1.92;;
55065;SDS011;40964;42.114;24.220;2024-02-21T13:40:12;4.13;;;2.60;;
55065;SDS011;40964;42.114;24.220;2024-02-21T13:42:38;2.20;;;2.00;;
55065;SDS011;40964;42.114;24.220;2024-02-21T13:45:04;2.67;;;2.10;;
55065;SDS011;40964;42.114;24.220;2024-02-21T13:47:31;4.35;;;2.38;;
55065;SDS011;40964;42.114;24.220;2024-02-21T13:50:02;2.95;;;2.15;;
55065;SDS011;40964;42.114;24.220;2024-02-21T13:52:29;3.92;;;2.75;;
55065;SDS011;40964;42.114;24.220;2024-02-21T13:54:56;6.55;;;3.05;;
55065;SDS011;40964;42.114;24.220;2024-02-21T13:57:22;5.53;;;2.97;;
55065;SDS011;40964;42.114;24.220;2024-02-21T13:59:47;4.63;;;2.70;;
55065;SDS011;40964;42.114;24.220;2024-02-21T14:02:13;5.38;;;2.80;;
55065;SDS011;40964;42.114;24.220;2024-02-21T14:04:38;4.25;;;2.67;;
55065;SDS011;40964;42.114;24.220;2024-02-21T14:07:04;9.82;;;3.33;;
55065;SDS011;40964;42.114;24.220;2024-02-21T14:09:29;6.25;;;3.50;;
55065;SDS011;40964;42.114;24.220;2024-02-21T14:11:55;6.85;;;2.95;;
55065;SDS011;40964;42.114;24.220;2024-02-21T14:14:20;6.43;;;2.95;;
55065;SDS011;40964;42.114;24.220;2024-02-21T14:16:46;6.00;;;3.85;;
55065;SDS011;40964;42.114;24.220;2024-02-21T14:19:15;5.97;;;3.90;;
55065;SDS011;40964;42.114;24.220;2024-02-21T14:21:40;5.10;;;2.90;;
55065;SDS011;40964;42.114;24.220;2024-02-21T14:24:06;4.35;;;2.40;;